This is the latest recevied weather packets stored in our database for station/object BMCB-28. If no packets are shown the sender has not sent any weather packets the latest 10 day(s).
| Time | Temp. | Humidity | Pressure | Rain* | Wind** | Luminosity | Snow |
|---|---|---|---|---|---|---|---|
| 1777839066 | 11.67° C | 89% | 1014.8 hPa | 0 mm | - | 0 W/m² | - |
| 1777837861 | 11.67° C | 90% | 1014.9 hPa | 0 mm | - | 0 W/m² | - |
| 1777836056 | 11.67° C | 90% | 1014.8 hPa | 0 mm | - | 0 W/m² | - |
| 1777829453 | 12.22° C | 85% | 1013.9 hPa | 0 mm | - | 36 W/m² | - |
| 1777825852 | 12.78° C | 85% | 1014 hPa | 0 mm | - | 56 W/m² | - |
| 1777822851 | 12.78° C | 87% | 1014.2 hPa | 0.25 mm | - | 132 W/m² | - |
| 1777822251 | 12.78° C | 88% | 1014.3 hPa | 0.25 mm | - | 140 W/m² | - |
| 1777812047 | 12.78° C | 85% | 1015 hPa | 0.51 mm | - | 296 W/m² | - |
| 1777808450 | 13.33° C | 73% | 1014.9 hPa | 0 mm | - | 232 W/m² | - |
| 1777807848 | 13.33° C | 70% | 1014.9 hPa | 0 mm | - | 240 W/m² | - |
| 1777807248 | 13.89° C | 67% | 1014.8 hPa | 0 mm | - | 182 W/m² | - |
| 1777804847 | 15° C | 60% | 1014.7 hPa | 0 mm | - | 238 W/m² | - |
| 1777804249 | 15° C | 60% | 1014.6 hPa | 0 mm | - | 336 W/m² | - |
| 1777802451 | 14.44° C | 58% | 1014.5 hPa | 0 mm | - | 352 W/m² | - |
| 1777800051 | 13.89° C | 57% | 1014.4 hPa | 0 mm | - | 214 W/m² | - |
| 1777792843 | 12.78° C | 66% | 1014.5 hPa | 0.25 mm | - | 236 W/m² | - |
| 1777790446 | 11.67° C | 76% | 1014.7 hPa | 0.25 mm | - | 176 W/m² | - |
| 1777783840 | 7.78° C | 99% | 1015.8 hPa | 0 mm | - | 32 W/m² | - |
| 1777778442 | 8.33° C | 99% | 1015.8 hPa | 0 mm | - | 0 W/m² | - |
| 1777761056 | 10.56° C | 99% | 1016.9 hPa | 0 mm | - | 0 W/m² | - |
| 1777756258 | 11.11° C | 98% | 1016.9 hPa | 0 mm | - | 0 W/m² | - |
| 1777755657 | 11.67° C | 98% | 1016.9 hPa | 0 mm | - | 0 W/m² | - |
| 1777748459 | 13.33° C | 97% | 1016.6 hPa | 0 mm | - | 0 W/m² | - |
| 1777747257 | 13.33° C | 97% | 1017 hPa | 0 mm | - | 2 W/m² | - |
| 1777745455 | 13.33° C | 96% | 1017.1 hPa | 0.25 mm | - | 28 W/m² | - |
* Rain latest hour (hover to see other rain measurements)
** Current wind speed in m/s (hover to see current wind gust speed)